sensor_id;sensor_type;location;lat;lon;timestamp;P1;durP1;ratioP1;P2;durP2;ratioP2
5303;SDS011;2674;49.722;10.892;2023-08-07T00:00:52;0.80;;;0.80;;
5303;SDS011;2674;49.722;10.892;2023-08-07T00:03:18;0.73;;;0.73;;
5303;SDS011;2674;49.722;10.892;2023-08-07T00:05:45;0.60;;;0.60;;
5303;SDS011;2674;49.722;10.892;2023-08-07T00:08:11;0.60;;;0.60;;
5303;SDS011;2674;49.722;10.892;2023-08-07T00:10:37;0.87;;;0.70;;
5303;SDS011;2674;49.722;10.892;2023-08-07T00:13:03;0.87;;;0.87;;
5303;SDS011;2674;49.722;10.892;2023-08-07T00:15:29;0.70;;;0.70;;
5303;SDS011;2674;49.722;10.892;2023-08-07T00:17:55;0.70;;;0.70;;
5303;SDS011;2674;49.722;10.892;2023-08-07T00:20:20;1.23;;;0.60;;
5303;SDS011;2674;49.722;10.892;2023-08-07T00:22:47;2.00;;;0.60;;
5303;SDS011;2674;49.722;10.892;2023-08-07T00:25:12;2.57;;;2.23;;
5303;SDS011;2674;49.722;10.892;2023-08-07T00:27:38;0.70;;;0.70;;
5303;SDS011;2674;49.722;10.892;2023-08-07T00:30:04;0.50;;;0.50;;
5303;SDS011;2674;49.722;10.892;2023-08-07T00:32:30;1.23;;;0.77;;
5303;SDS011;2674;49.722;10.892;2023-08-07T00:34:56;1.27;;;0.70;;
5303;SDS011;2674;49.722;10.892;2023-08-07T00:37:22;0.70;;;0.70;;
5303;SDS011;2674;49.722;10.892;2023-08-07T00:39:48;0.70;;;0.70;;
5303;SDS011;2674;49.722;10.892;2023-08-07T00:42:14;0.70;;;0.70;;
5303;SDS011;2674;49.722;10.892;2023-08-07T00:44:40;0.60;;;0.60;;
5303;SDS011;2674;49.722;10.892;2023-08-07T00:47:06;1.33;;;0.70;;
5303;SDS011;2674;49.722;10.892;2023-08-07T00:49:32;0.87;;;0.87;;
5303;SDS011;2674;49.722;10.892;2023-08-07T00:51:59;0.70;;;0.70;;
5303;SDS011;2674;49.722;10.892;2023-08-07T00:54:24;0.60;;;0.60;;
5303;SDS011;2674;49.722;10.892;2023-08-07T00:56:51;0.67;;;0.67;;
5303;SDS011;2674;49.722;10.892;2023-08-07T00:59:17;0.60;;;0.60;;
5303;SDS011;2674;49.722;10.892;2023-08-07T01:01:44;1.30;;;0.73;;
5303;SDS011;2674;49.722;10.892;2023-08-07T01:04:10;1.53;;;0.70;;
5303;SDS011;2674;49.722;10.892;2023-08-07T01:06:36;1.00;;;1.00;;
5303;SDS011;2674;49.722;10.892;2023-08-07T01:09:02;1.13;;;0.93;;
5303;SDS011;2674;49.722;10.892;2023-08-07T01:11:34;1.80;;;1.00;;
5303;SDS011;2674;49.722;10.892;2023-08-07T01:16:57;0.90;;;0.90;;
5303;SDS011;2674;49.722;10.892;2023-08-07T01:19:29;2.23;;;1.30;;
5303;SDS011;2674;49.722;10.892;2023-08-07T01:22:05;1.70;;;1.00;;
5303;SDS011;2674;49.722;10.892;2023-08-07T01:24:31;1.10;;;1.10;;
5303;SDS011;2674;49.722;10.892;2023-08-07T01:27:00;1.20;;;1.20;;
5303;SDS011;2674;49.722;10.892;2023-08-07T01:35:39;0.70;;;0.70;;
5303;SDS011;2674;49.722;10.892;2023-08-07T01:38:08;1.00;;;1.00;;
5303;SDS011;2674;49.722;10.892;2023-08-07T01:40:35;1.90;;;1.10;;
5303;SDS011;2674;49.722;10.892;2023-08-07T01:43:03;0.90;;;0.90;;
5303;SDS011;2674;49.722;10.892;2023-08-07T01:45:30;1.33;;;1.23;;
5303;SDS011;2674;49.722;10.892;2023-08-07T01:47:56;0.80;;;0.80;;
5303;SDS011;2674;49.722;10.892;2023-08-07T01:50:22;1.27;;;1.03;;
5303;SDS011;2674;49.722;10.892;2023-08-07T01:52:49;1.33;;;1.03;;
5303;SDS011;2674;49.722;10.892;2023-08-07T01:55:16;0.83;;;0.80;;
5303;SDS011;2674;49.722;10.892;2023-08-07T01:57:43;0.70;;;0.70;;
5303;SDS011;2674;49.722;10.892;2023-08-07T02:00:10;1.73;;;0.80;;
5303;SDS011;2674;49.722;10.892;2023-08-07T02:02:36;2.23;;;0.90;;
5303;SDS011;2674;49.722;10.892;2023-08-07T02:05:03;0.93;;;0.80;;
5303;SDS011;2674;49.722;10.892;2023-08-07T02:07:30;3.80;;;1.20;;
5303;SDS011;2674;49.722;10.892;2023-08-07T02:09:56;6.10;;;0.80;;
5303;SDS011;2674;49.722;10.892;2023-08-07T02:12:22;5.43;;;1.40;;
5303;SDS011;2674;49.722;10.892;2023-08-07T02:14:48;3.33;;;0.90;;
5303;SDS011;2674;49.722;10.892;2023-08-07T02:17:14;0.70;;;0.70;;
5303;SDS011;2674;49.722;10.892;2023-08-07T02:19:40;0.90;;;0.90;;
5303;SDS011;2674;49.722;10.892;2023-08-07T02:22:06;2.13;;;0.83;;
5303;SDS011;2674;49.722;10.892;2023-08-07T02:24:31;1.00;;;0.70;;
5303;SDS011;2674;49.722;10.892;2023-08-07T02:26:57;2.13;;;1.00;;
5303;SDS011;2674;49.722;10.892;2023-08-07T02:29:23;1.40;;;1.30;;
5303;SDS011;2674;49.722;10.892;2023-08-07T02:31:49;1.13;;;0.70;;
5303;SDS011;2674;49.722;10.892;2023-08-07T02:34:16;1.33;;;0.70;;
5303;SDS011;2674;49.722;10.892;2023-08-07T02:36:41;0.80;;;0.80;;
5303;SDS011;2674;49.722;10.892;2023-08-07T02:39:07;0.93;;;0.77;;
5303;SDS011;2674;49.722;10.892;2023-08-07T02:41:33;4.73;;;0.80;;
5303;SDS011;2674;49.722;10.892;2023-08-07T02:43:59;0.83;;;0.70;;
5303;SDS011;2674;49.722;10.892;2023-08-07T02:46:25;1.27;;;0.80;;
5303;SDS011;2674;49.722;10.892;2023-08-07T02:48:50;2.53;;;0.70;;
5303;SDS011;2674;49.722;10.892;2023-08-07T02:51:17;4.93;;;1.33;;
5303;SDS011;2674;49.722;10.892;2023-08-07T02:53:43;1.37;;;0.80;;
5303;SDS011;2674;49.722;10.892;2023-08-07T02:56:09;1.30;;;1.20;;
5303;SDS011;2674;49.722;10.892;2023-08-07T02:58:35;3.13;;;1.13;;
5303;SDS011;2674;49.722;10.892;2023-08-07T03:01:05;0.87;;;0.87;;
5303;SDS011;2674;49.722;10.892;2023-08-07T03:03:31;1.67;;;1.03;;
5303;SDS011;2674;49.722;10.892;2023-08-07T03:06:00;1.17;;;0.70;;
5303;SDS011;2674;49.722;10.892;2023-08-07T03:08:26;1.07;;;0.87;;
5303;SDS011;2674;49.722;10.892;2023-08-07T03:10:52;2.47;;;0.70;;
5303;SDS011;2674;49.722;10.892;2023-08-07T03:13:20;1.73;;;0.60;;
5303;SDS011;2674;49.722;10.892;2023-08-07T03:15:47;1.00;;;1.00;;
5303;SDS011;2674;49.722;10.892;2023-08-07T03:18:15;0.90;;;0.90;;
5303;SDS011;2674;49.722;10.892;2023-08-07T03:20:44;1.00;;;1.00;;
5303;SDS011;2674;49.722;10.892;2023-08-07T03:23:10;3.33;;;0.90;;
5303;SDS011;2674;49.722;10.892;2023-08-07T03:25:36;1.13;;;1.00;;
5303;SDS011;2674;49.722;10.892;2023-08-07T03:28:02;1.63;;;0.80;;
5303;SDS011;2674;49.722;10.892;2023-08-07T03:30:28;1.53;;;1.20;;
5303;SDS011;2674;49.722;10.892;2023-08-07T03:32:54;1.20;;;0.90;;
5303;SDS011;2674;49.722;10.892;2023-08-07T03:35:20;3.13;;;1.03;;
5303;SDS011;2674;49.722;10.892;2023-08-07T03:37:46;3.53;;;2.47;;
5303;SDS011;2674;49.722;10.892;2023-08-07T03:40:11;2.30;;;1.20;;
5303;SDS011;2674;49.722;10.892;2023-08-07T03:42:37;0.97;;;0.80;;
5303;SDS011;2674;49.722;10.892;2023-08-07T03:45:03;1.03;;;1.00;;
5303;SDS011;2674;49.722;10.892;2023-08-07T03:47:29;1.27;;;1.17;;
5303;SDS011;2674;49.722;10.892;2023-08-07T03:49:55;0.90;;;0.90;;
5303;SDS011;2674;49.722;10.892;2023-08-07T03:52:21;1.70;;;1.00;;
5303;SDS011;2674;49.722;10.892;2023-08-07T03:54:46;2.00;;;0.93;;
5303;SDS011;2674;49.722;10.892;2023-08-07T03:57:12;2.20;;;2.10;;
5303;SDS011;2674;49.722;10.892;2023-08-07T03:59:38;1.10;;;1.10;;
5303;SDS011;2674;49.722;10.892;2023-08-07T04:02:04;1.93;;;0.97;;
5303;SDS011;2674;49.722;10.892;2023-08-07T04:04:29;3.33;;;1.23;;
5303;SDS011;2674;49.722;10.892;2023-08-07T04:06:55;6.80;;;1.90;;
5303;SDS011;2674;49.722;10.892;2023-08-07T04:09:21;1.27;;;1.20;;
5303;SDS011;2674;49.722;10.892;2023-08-07T04:11:47;2.50;;;1.10;;
5303;SDS011;2674;49.722;10.892;2023-08-07T04:14:13;1.57;;;1.30;;
5303;SDS011;2674;49.722;10.892;2023-08-07T04:16:38;1.73;;;0.97;;
5303;SDS011;2674;49.722;10.892;2023-08-07T04:19:04;2.70;;;1.30;;
5303;SDS011;2674;49.722;10.892;2023-08-07T04:21:32;1.40;;;1.30;;
5303;SDS011;2674;49.722;10.892;2023-08-07T04:23:59;1.00;;;1.00;;
5303;SDS011;2674;49.722;10.892;2023-08-07T04:26:33;2.93;;;1.50;;
5303;SDS011;2674;49.722;10.892;2023-08-07T04:28:59;2.93;;;1.33;;
5303;SDS011;2674;49.722;10.892;2023-08-07T04:31:25;1.47;;;1.37;;
5303;SDS011;2674;49.722;10.892;2023-08-07T04:33:51;3.37;;;1.17;;
5303;SDS011;2674;49.722;10.892;2023-08-07T04:36:17;3.63;;;1.60;;
5303;SDS011;2674;49.722;10.892;2023-08-07T04:38:42;1.73;;;1.60;;
5303;SDS011;2674;49.722;10.892;2023-08-07T04:41:08;1.77;;;1.63;;
5303;SDS011;2674;49.722;10.892;2023-08-07T04:43:34;9.20;;;1.43;;
5303;SDS011;2674;49.722;10.892;2023-08-07T04:46:00;1.57;;;1.47;;
5303;SDS011;2674;49.722;10.892;2023-08-07T04:48:26;2.63;;;1.47;;
5303;SDS011;2674;49.722;10.892;2023-08-07T04:50:51;2.80;;;1.40;;
5303;SDS011;2674;49.722;10.892;2023-08-07T04:53:17;3.80;;;1.63;;
5303;SDS011;2674;49.722;10.892;2023-08-07T04:55:43;1.90;;;1.80;;
5303;SDS011;2674;49.722;10.892;2023-08-07T04:58:09;4.00;;;2.23;;
5303;SDS011;2674;49.722;10.892;2023-08-07T05:00:35;2.37;;;1.60;;
5303;SDS011;2674;49.722;10.892;2023-08-07T05:03:01;1.60;;;1.40;;
5303;SDS011;2674;49.722;10.892;2023-08-07T05:05:27;1.80;;;1.70;;
5303;SDS011;2674;49.722;10.892;2023-08-07T05:07:54;3.23;;;1.70;;
5303;SDS011;2674;49.722;10.892;2023-08-07T05:10:20;3.23;;;1.80;;
5303;SDS011;2674;49.722;10.892;2023-08-07T05:12:47;3.37;;;1.83;;
5303;SDS011;2674;49.722;10.892;2023-08-07T05:15:13;1.60;;;1.50;;
5303;SDS011;2674;49.722;10.892;2023-08-07T05:17:39;3.27;;;1.83;;
5303;SDS011;2674;49.722;10.892;2023-08-07T05:20:05;2.50;;;1.80;;
5303;SDS011;2674;49.722;10.892;2023-08-07T05:22:31;5.20;;;2.23;;
5303;SDS011;2674;49.722;10.892;2023-08-07T05:24:57;2.97;;;1.50;;
5303;SDS011;2674;49.722;10.892;2023-08-07T05:27:23;2.07;;;1.93;;
5303;SDS011;2674;49.722;10.892;2023-08-07T05:29:49;3.03;;;2.07;;
5303;SDS011;2674;49.722;10.892;2023-08-07T05:32:14;6.20;;;2.40;;
5303;SDS011;2674;49.722;10.892;2023-08-07T05:34:40;4.77;;;2.13;;
5303;SDS011;2674;49.722;10.892;2023-08-07T05:37:06;4.87;;;2.20;;
5303;SDS011;2674;49.722;10.892;2023-08-07T05:39:33;8.60;;;2.63;;
5303;SDS011;2674;49.722;10.892;2023-08-07T05:42:00;7.13;;;2.33;;
5303;SDS011;2674;49.722;10.892;2023-08-07T05:44:26;4.57;;;3.00;;
5303;SDS011;2674;49.722;10.892;2023-08-07T05:46:52;4.67;;;2.57;;
5303;SDS011;2674;49.722;10.892;2023-08-07T05:49:18;6.00;;;2.90;;
5303;SDS011;2674;49.722;10.892;2023-08-07T05:51:45;6.93;;;2.70;;
5303;SDS011;2674;49.722;10.892;2023-08-07T05:54:11;9.87;;;2.37;;
5303;SDS011;2674;49.722;10.892;2023-08-07T05:56:37;5.77;;;2.73;;
5303;SDS011;2674;49.722;10.892;2023-08-07T05:59:03;3.10;;;2.80;;
5303;SDS011;2674;49.722;10.892;2023-08-07T06:01:29;2.70;;;2.10;;
5303;SDS011;2674;49.722;10.892;2023-08-07T06:03:58;3.13;;;2.10;;
5303;SDS011;2674;49.722;10.892;2023-08-07T06:06:24;6.17;;;2.97;;
5303;SDS011;2674;49.722;10.892;2023-08-07T06:08:52;7.03;;;2.70;;
5303;SDS011;2674;49.722;10.892;2023-08-07T06:11:19;4.70;;;2.90;;
5303;SDS011;2674;49.722;10.892;2023-08-07T06:13:45;9.83;;;3.10;;
5303;SDS011;2674;49.722;10.892;2023-08-07T06:16:10;9.00;;;2.77;;
5303;SDS011;2674;49.722;10.892;2023-08-07T06:18:36;9.83;;;2.43;;
5303;SDS011;2674;49.722;10.892;2023-08-07T06:21:02;10.23;;;2.80;;
5303;SDS011;2674;49.722;10.892;2023-08-07T06:23:35;5.80;;;2.70;;
5303;SDS011;2674;49.722;10.892;2023-08-07T06:26:01;3.40;;;2.03;;
5303;SDS011;2674;49.722;10.892;2023-08-07T06:28:32;5.70;;;3.00;;
5303;SDS011;2674;49.722;10.892;2023-08-07T06:31:02;4.77;;;2.17;;
5303;SDS011;2674;49.722;10.892;2023-08-07T06:33:31;4.30;;;2.57;;
5303;SDS011;2674;49.722;10.892;2023-08-07T06:35:58;2.73;;;2.07;;
5303;SDS011;2674;49.722;10.892;2023-08-07T06:38:24;4.20;;;2.40;;
5303;SDS011;2674;49.722;10.892;2023-08-07T06:40:50;6.53;;;3.00;;
5303;SDS011;2674;49.722;10.892;2023-08-07T06:43:17;2.70;;;2.50;;
5303;SDS011;2674;49.722;10.892;2023-08-07T06:45:46;4.60;;;2.27;;
5303;SDS011;2674;49.722;10.892;2023-08-07T06:48:14;2.50;;;2.30;;
5303;SDS011;2674;49.722;10.892;2023-08-07T06:50:40;3.57;;;2.33;;
5303;SDS011;2674;49.722;10.892;2023-08-07T06:53:05;4.43;;;2.40;;
5303;SDS011;2674;49.722;10.892;2023-08-07T06:55:31;5.97;;;2.27;;
5303;SDS011;2674;49.722;10.892;2023-08-07T06:57:58;5.40;;;3.20;;
5303;SDS011;2674;49.722;10.892;2023-08-07T07:00:24;3.83;;;2.30;;
5303;SDS011;2674;49.722;10.892;2023-08-07T07:02:50;5.47;;;2.67;;
5303;SDS011;2674;49.722;10.892;2023-08-07T07:05:16;4.23;;;2.73;;
5303;SDS011;2674;49.722;10.892;2023-08-07T07:07:42;12.03;;;3.87;;
5303;SDS011;2674;49.722;10.892;2023-08-07T07:10:08;7.10;;;3.20;;
5303;SDS011;2674;49.722;10.892;2023-08-07T07:12:34;5.87;;;3.87;;
5303;SDS011;2674;49.722;10.892;2023-08-07T07:15:00;7.37;;;2.90;;
5303;SDS011;2674;49.722;10.892;2023-08-07T07:17:25;3.57;;;2.60;;
5303;SDS011;2674;49.722;10.892;2023-08-07T07:19:51;3.30;;;2.70;;
5303;SDS011;2674;49.722;10.892;2023-08-07T07:22:17;5.13;;;2.63;;
5303;SDS011;2674;49.722;10.892;2023-08-07T07:24:43;7.87;;;2.90;;
5303;SDS011;2674;49.722;10.892;2023-08-07T07:27:09;3.75;;;2.28;;
5303;SDS011;2674;49.722;10.892;2023-08-07T07:29:34;4.37;;;2.53;;
5303;SDS011;2674;49.722;10.892;2023-08-07T07:32:00;4.60;;;2.20;;
5303;SDS011;2674;49.722;10.892;2023-08-07T07:34:26;5.53;;;2.30;;
5303;SDS011;2674;49.722;10.892;2023-08-07T07:36:52;3.23;;;2.50;;
5303;SDS011;2674;49.722;10.892;2023-08-07T07:39:19;7.83;;;2.37;;
5303;SDS011;2674;49.722;10.892;2023-08-07T07:41:45;9.10;;;2.40;;
5303;SDS011;2674;49.722;10.892;2023-08-07T07:44:11;3.50;;;2.57;;
5303;SDS011;2674;49.722;10.892;2023-08-07T07:46:38;4.20;;;2.17;;
5303;SDS011;2674;49.722;10.892;2023-08-07T07:49:03;8.60;;;2.27;;
5303;SDS011;2674;49.722;10.892;2023-08-07T07:51:30;3.47;;;2.30;;
5303;SDS011;2674;49.722;10.892;2023-08-07T07:53:57;6.30;;;2.90;;
5303;SDS011;2674;49.722;10.892;2023-08-07T07:56:23;7.70;;;2.70;;
5303;SDS011;2674;49.722;10.892;2023-08-07T07:58:49;3.50;;;2.30;;
5303;SDS011;2674;49.722;10.892;2023-08-07T08:01:15;4.80;;;2.83;;
5303;SDS011;2674;49.722;10.892;2023-08-07T08:03:40;4.33;;;2.63;;
5303;SDS011;2674;49.722;10.892;2023-08-07T08:06:08;3.87;;;2.47;;
5303;SDS011;2674;49.722;10.892;2023-08-07T08:08:36;4.97;;;2.73;;
5303;SDS011;2674;49.722;10.892;2023-08-07T08:11:01;6.70;;;4.40;;
5303;SDS011;2674;49.722;10.892;2023-08-07T08:13:27;6.73;;;2.30;;
5303;SDS011;2674;49.722;10.892;2023-08-07T08:15:53;8.00;;;2.90;;
5303;SDS011;2674;49.722;10.892;2023-08-07T08:18:19;5.83;;;2.93;;
5303;SDS011;2674;49.722;10.892;2023-08-07T08:20:45;3.90;;;2.63;;
5303;SDS011;2674;49.722;10.892;2023-08-07T08:23:11;3.27;;;2.60;;
5303;SDS011;2674;49.722;10.892;2023-08-07T08:25:37;5.03;;;2.80;;
5303;SDS011;2674;49.722;10.892;2023-08-07T08:28:03;3.30;;;3.10;;
5303;SDS011;2674;49.722;10.892;2023-08-07T08:30:29;13.83;;;3.30;;
5303;SDS011;2674;49.722;10.892;2023-08-07T08:32:55;6.00;;;2.93;;
5303;SDS011;2674;49.722;10.892;2023-08-07T08:35:21;5.60;;;2.63;;
5303;SDS011;2674;49.722;10.892;2023-08-07T08:37:47;6.10;;;2.80;;
5303;SDS011;2674;49.722;10.892;2023-08-07T08:40:13;4.23;;;3.80;;
5303;SDS011;2674;49.722;10.892;2023-08-07T08:42:43;4.37;;;2.67;;
5303;SDS011;2674;49.722;10.892;2023-08-07T08:45:12;8.97;;;2.60;;
5303;SDS011;2674;49.722;10.892;2023-08-07T08:47:40;3.27;;;2.37;;
5303;SDS011;2674;49.722;10.892;2023-08-07T08:50:13;6.37;;;2.60;;
5303;SDS011;2674;49.722;10.892;2023-08-07T08:52:43;11.13;;;2.97;;
5303;SDS011;2674;49.722;10.892;2023-08-07T08:55:10;7.47;;;3.00;;
5303;SDS011;2674;49.722;10.892;2023-08-07T08:57:38;5.23;;;3.10;;
5303;SDS011;2674;49.722;10.892;2023-08-07T09:00:05;3.10;;;2.67;;
5303;SDS011;2674;49.722;10.892;2023-08-07T09:02:38;9.30;;;3.03;;
5303;SDS011;2674;49.722;10.892;2023-08-07T09:05:04;6.57;;;3.03;;
5303;SDS011;2674;49.722;10.892;2023-08-07T09:07:30;9.23;;;2.87;;
5303;SDS011;2674;49.722;10.892;2023-08-07T09:09:56;8.57;;;3.40;;
5303;SDS011;2674;49.722;10.892;2023-08-07T09:12:25;9.03;;;2.67;;
5303;SDS011;2674;49.722;10.892;2023-08-07T09:14:54;6.23;;;3.90;;
5303;SDS011;2674;49.722;10.892;2023-08-07T09:17:33;6.83;;;3.00;;
5303;SDS011;2674;49.722;10.892;2023-08-07T09:20:02;5.37;;;3.10;;
5303;SDS011;2674;49.722;10.892;2023-08-07T09:22:29;5.93;;;2.70;;
5303;SDS011;2674;49.722;10.892;2023-08-07T09:24:55;4.73;;;3.30;;
5303;SDS011;2674;49.722;10.892;2023-08-07T09:27:24;3.30;;;3.00;;
5303;SDS011;2674;49.722;10.892;2023-08-07T09:29:51;3.63;;;2.50;;
5303;SDS011;2674;49.722;10.892;2023-08-07T09:32:19;4.33;;;2.40;;
5303;SDS011;2674;49.722;10.892;2023-08-07T09:34:47;5.50;;;3.37;;
5303;SDS011;2674;49.722;10.892;2023-08-07T09:37:15;8.20;;;3.67;;
5303;SDS011;2674;49.722;10.892;2023-08-07T09:39:41;8.73;;;2.30;;
5303;SDS011;2674;49.722;10.892;2023-08-07T09:42:13;10.03;;;2.97;;
5303;SDS011;2674;49.722;10.892;2023-08-07T09:44:40;7.00;;;2.57;;
5303;SDS011;2674;49.722;10.892;2023-08-07T09:47:13;4.53;;;2.60;;
5303;SDS011;2674;49.722;10.892;2023-08-07T09:49:40;3.23;;;2.40;;
5303;SDS011;2674;49.722;10.892;2023-08-07T09:52:07;3.73;;;2.37;;
5303;SDS011;2674;49.722;10.892;2023-08-07T09:54:34;5.30;;;2.50;;
5303;SDS011;2674;49.722;10.892;2023-08-07T09:57:01;3.43;;;2.50;;
5303;SDS011;2674;49.722;10.892;2023-08-07T09:59:28;5.60;;;2.07;;
5303;SDS011;2674;49.722;10.892;2023-08-07T10:01:54;2.73;;;2.33;;
5303;SDS011;2674;49.722;10.892;2023-08-07T10:04:21;3.30;;;2.30;;
5303;SDS011;2674;49.722;10.892;2023-08-07T10:06:47;2.77;;;2.30;;
5303;SDS011;2674;49.722;10.892;2023-08-07T10:09:13;4.23;;;2.00;;
5303;SDS011;2674;49.722;10.892;2023-08-07T10:11:40;8.00;;;2.47;;
5303;SDS011;2674;49.722;10.892;2023-08-07T10:14:08;3.23;;;2.20;;
5303;SDS011;2674;49.722;10.892;2023-08-07T10:16:34;3.47;;;2.17;;
5303;SDS011;2674;49.722;10.892;2023-08-07T10:19:08;3.70;;;2.80;;
5303;SDS011;2674;49.722;10.892;2023-08-07T10:21:38;6.33;;;2.60;;
5303;SDS011;2674;49.722;10.892;2023-08-07T10:24:06;5.47;;;2.47;;
5303;SDS011;2674;49.722;10.892;2023-08-07T10:26:33;2.70;;;2.00;;
5303;SDS011;2674;49.722;10.892;2023-08-07T10:29:01;3.37;;;3.07;;
5303;SDS011;2674;49.722;10.892;2023-08-07T10:31:29;6.43;;;2.87;;
5303;SDS011;2674;49.722;10.892;2023-08-07T10:33:56;4.00;;;1.97;;
5303;SDS011;2674;49.722;10.892;2023-08-07T10:36:22;8.73;;;2.87;;
5303;SDS011;2674;49.722;10.892;2023-08-07T10:38:55;8.20;;;2.70;;
5303;SDS011;2674;49.722;10.892;2023-08-07T10:41:38;4.47;;;2.20;;
5303;SDS011;2674;49.722;10.892;2023-08-07T10:44:10;7.80;;;2.03;;
5303;SDS011;2674;49.722;10.892;2023-08-07T10:46:55;4.03;;;2.70;;
5303;SDS011;2674;49.722;10.892;2023-08-07T10:52:11;8.50;;;2.70;;
5303;SDS011;2674;49.722;10.892;2023-08-07T10:54:40;4.20;;;2.23;;
5303;SDS011;2674;49.722;10.892;2023-08-07T10:57:16;4.57;;;2.43;;
5303;SDS011;2674;49.722;10.892;2023-08-07T10:59:50;4.30;;;2.70;;
5303;SDS011;2674;49.722;10.892;2023-08-07T11:02:26;4.67;;;2.53;;
5303;SDS011;2674;49.722;10.892;2023-08-07T11:04:54;5.03;;;2.40;;
5303;SDS011;2674;49.722;10.892;2023-08-07T11:07:27;4.27;;;2.20;;
5303;SDS011;2674;49.722;10.892;2023-08-07T11:09:56;6.23;;;2.10;;
5303;SDS011;2674;49.722;10.892;2023-08-07T11:12:27;2.80;;;2.30;;
5303;SDS011;2674;49.722;10.892;2023-08-07T11:14:54;2.10;;;1.90;;
5303;SDS011;2674;49.722;10.892;2023-08-07T11:17:27;2.13;;;1.93;;
5303;SDS011;2674;49.722;10.892;2023-08-07T11:19:55;6.83;;;2.80;;
5303;SDS011;2674;49.722;10.892;2023-08-07T11:22:21;3.43;;;2.67;;
5303;SDS011;2674;49.722;10.892;2023-08-07T11:24:47;9.27;;;2.43;;
5303;SDS011;2674;49.722;10.892;2023-08-07T11:27:15;3.00;;;2.73;;
5303;SDS011;2674;49.722;10.892;2023-08-07T11:29:40;4.53;;;2.03;;
5303;SDS011;2674;49.722;10.892;2023-08-07T11:32:15;5.87;;;2.13;;
5303;SDS011;2674;49.722;10.892;2023-08-07T11:34:46;2.07;;;1.87;;
5303;SDS011;2674;49.722;10.892;2023-08-07T11:37:16;4.30;;;1.80;;
5303;SDS011;2674;49.722;10.892;2023-08-07T11:39:45;2.70;;;1.90;;
5303;SDS011;2674;49.722;10.892;2023-08-07T11:42:11;3.70;;;1.90;;
5303;SDS011;2674;49.722;10.892;2023-08-07T11:44:36;4.50;;;2.00;;
5303;SDS011;2674;49.722;10.892;2023-08-07T11:47:02;5.20;;;2.67;;
5303;SDS011;2674;49.722;10.892;2023-08-07T11:49:28;3.20;;;2.10;;
5303;SDS011;2674;49.722;10.892;2023-08-07T11:51:57;5.50;;;2.07;;
5303;SDS011;2674;49.722;10.892;2023-08-07T11:54:23;2.30;;;1.77;;
5303;SDS011;2674;49.722;10.892;2023-08-07T11:56:49;3.70;;;2.43;;
5303;SDS011;2674;49.722;10.892;2023-08-07T11:59:18;2.63;;;1.90;;
5303;SDS011;2674;49.722;10.892;2023-08-07T12:01:45;4.03;;;3.33;;
5303;SDS011;2674;49.722;10.892;2023-08-07T12:04:11;5.83;;;3.17;;
5303;SDS011;2674;49.722;10.892;2023-08-07T12:06:37;5.43;;;2.53;;
5303;SDS011;2674;49.722;10.892;2023-08-07T12:09:08;2.27;;;2.07;;
5303;SDS011;2674;49.722;10.892;2023-08-07T12:11:38;4.03;;;2.17;;
5303;SDS011;2674;49.722;10.892;2023-08-07T12:14:04;3.10;;;1.83;;
5303;SDS011;2674;49.722;10.892;2023-08-07T12:16:33;6.13;;;2.53;;
5303;SDS011;2674;49.722;10.892;2023-08-07T12:19:00;3.57;;;2.17;;
5303;SDS011;2674;49.722;10.892;2023-08-07T12:21:26;2.63;;;2.37;;
5303;SDS011;2674;49.722;10.892;2023-08-07T12:23:56;5.10;;;1.77;;
5303;SDS011;2674;49.722;10.892;2023-08-07T12:26:22;3.07;;;2.60;;
5303;SDS011;2674;49.722;10.892;2023-08-07T12:28:48;2.10;;;1.80;;
5303;SDS011;2674;49.722;10.892;2023-08-07T12:31:15;2.90;;;1.97;;
5303;SDS011;2674;49.722;10.892;2023-08-07T12:33:42;3.43;;;1.43;;
5303;SDS011;2674;49.722;10.892;2023-08-07T12:36:08;3.23;;;2.00;;
5303;SDS011;2674;49.722;10.892;2023-08-07T12:38:35;2.53;;;1.73;;
5303;SDS011;2674;49.722;10.892;2023-08-07T12:41:01;2.23;;;1.97;;
5303;SDS011;2674;49.722;10.892;2023-08-07T12:43:28;3.37;;;1.67;;
5303;SDS011;2674;49.722;10.892;2023-08-07T12:45:54;6.00;;;2.00;;
5303;SDS011;2674;49.722;10.892;2023-08-07T12:48:20;3.73;;;1.93;;
5303;SDS011;2674;49.722;10.892;2023-08-07T12:50:46;2.37;;;1.70;;
5303;SDS011;2674;49.722;10.892;2023-08-07T12:53:11;4.60;;;1.80;;
5303;SDS011;2674;49.722;10.892;2023-08-07T12:55:37;2.33;;;2.13;;
5303;SDS011;2674;49.722;10.892;2023-08-07T12:58:03;3.07;;;2.40;;
5303;SDS011;2674;49.722;10.892;2023-08-07T13:00:29;2.10;;;1.77;;
5303;SDS011;2674;49.722;10.892;2023-08-07T13:02:56;5.60;;;2.40;;
5303;SDS011;2674;49.722;10.892;2023-08-07T13:05:22;5.90;;;1.93;;
5303;SDS011;2674;49.722;10.892;2023-08-07T13:07:48;1.47;;;1.37;;
5303;SDS011;2674;49.722;10.892;2023-08-07T13:10:16;1.93;;;1.80;;
5303;SDS011;2674;49.722;10.892;2023-08-07T13:12:43;4.67;;;2.00;;
5303;SDS011;2674;49.722;10.892;2023-08-07T13:15:11;1.90;;;1.73;;
5303;SDS011;2674;49.722;10.892;2023-08-07T13:17:38;2.80;;;1.80;;
5303;SDS011;2674;49.722;10.892;2023-08-07T13:20:05;5.10;;;1.73;;
5303;SDS011;2674;49.722;10.892;2023-08-07T13:22:37;5.30;;;2.30;;
5303;SDS011;2674;49.722;10.892;2023-08-07T13:25:05;3.60;;;2.17;;
5303;SDS011;2674;49.722;10.892;2023-08-07T13:27:32;3.63;;;1.90;;
5303;SDS011;2674;49.722;10.892;2023-08-07T13:29:58;2.80;;;1.70;;
5303;SDS011;2674;49.722;10.892;2023-08-07T13:32:25;2.10;;;2.00;;
5303;SDS011;2674;49.722;10.892;2023-08-07T13:34:52;2.10;;;1.97;;
5303;SDS011;2674;49.722;10.892;2023-08-07T13:37:18;2.47;;;2.27;;
5303;SDS011;2674;49.722;10.892;2023-08-07T13:39:44;2.70;;;1.70;;
5303;SDS011;2674;49.722;10.892;2023-08-07T13:42:10;2.47;;;1.73;;
5303;SDS011;2674;49.722;10.892;2023-08-07T13:44:39;2.30;;;1.90;;
5303;SDS011;2674;49.722;10.892;2023-08-07T13:47:05;2.23;;;2.03;;
5303;SDS011;2674;49.722;10.892;2023-08-07T13:49:31;1.67;;;1.57;;
5303;SDS011;2674;49.722;10.892;2023-08-07T13:51:57;5.33;;;2.17;;
5303;SDS011;2674;49.722;10.892;2023-08-07T13:54:23;6.90;;;1.83;;
5303;SDS011;2674;49.722;10.892;2023-08-07T13:56:49;3.97;;;1.90;;
5303;SDS011;2674;49.722;10.892;2023-08-07T13:59:15;3.37;;;2.10;;
5303;SDS011;2674;49.722;10.892;2023-08-07T14:01:41;5.80;;;1.83;;
5303;SDS011;2674;49.722;10.892;2023-08-07T14:04:07;1.87;;;1.77;;
5303;SDS011;2674;49.722;10.892;2023-08-07T14:06:33;1.63;;;1.53;;
5303;SDS011;2674;49.722;10.892;2023-08-07T14:08:59;6.20;;;2.17;;
5303;SDS011;2674;49.722;10.892;2023-08-07T14:11:25;7.83;;;2.50;;
5303;SDS011;2674;49.722;10.892;2023-08-07T14:13:55;2.53;;;2.03;;
5303;SDS011;2674;49.722;10.892;2023-08-07T14:16:24;2.73;;;2.00;;
5303;SDS011;2674;49.722;10.892;2023-08-07T14:18:51;10.03;;;2.50;;
5303;SDS011;2674;49.722;10.892;2023-08-07T14:21:17;2.20;;;1.70;;
5303;SDS011;2674;49.722;10.892;2023-08-07T14:23:42;8.73;;;1.80;;
5303;SDS011;2674;49.722;10.892;2023-08-07T14:26:10;4.37;;;1.77;;
5303;SDS011;2674;49.722;10.892;2023-08-07T14:28:37;2.53;;;1.87;;
5303;SDS011;2674;49.722;10.892;2023-08-07T14:31:06;2.63;;;1.90;;
5303;SDS011;2674;49.722;10.892;2023-08-07T14:33:32;2.30;;;1.90;;
5303;SDS011;2674;49.722;10.892;2023-08-07T14:35:58;2.30;;;1.80;;
5303;SDS011;2674;49.722;10.892;2023-08-07T14:38:25;5.97;;;2.93;;
5303;SDS011;2674;49.722;10.892;2023-08-07T14:40:51;2.50;;;2.20;;
5303;SDS011;2674;49.722;10.892;2023-08-07T14:43:17;1.90;;;1.80;;
5303;SDS011;2674;49.722;10.892;2023-08-07T14:45:43;2.33;;;1.97;;
5303;SDS011;2674;49.722;10.892;2023-08-07T14:48:08;4.50;;;2.20;;
5303;SDS011;2674;49.722;10.892;2023-08-07T14:50:34;6.53;;;1.97;;
5303;SDS011;2674;49.722;10.892;2023-08-07T14:53:00;4.43;;;2.37;;
5303;SDS011;2674;49.722;10.892;2023-08-07T14:55:26;2.23;;;1.67;;
5303;SDS011;2674;49.722;10.892;2023-08-07T14:57:52;5.43;;;2.07;;
5303;SDS011;2674;49.722;10.892;2023-08-07T15:00:17;2.40;;;2.20;;
5303;SDS011;2674;49.722;10.892;2023-08-07T15:02:45;1.70;;;1.60;;
5303;SDS011;2674;49.722;10.892;2023-08-07T15:05:11;3.90;;;1.80;;
5303;SDS011;2674;49.722;10.892;2023-08-07T15:07:36;4.40;;;1.90;;
5303;SDS011;2674;49.722;10.892;2023-08-07T15:10:02;7.87;;;2.23;;